sensor_id;sensor_type;location;lat;lon;timestamp;P1;durP1;ratioP1;P2;durP2;ratioP2
18166;SDS011;9208;42.688;23.404;2022-11-14T00:02:20;29.63;;;21.63;;
18166;SDS011;9208;42.688;23.404;2022-11-14T00:04:46;27.60;;;21.00;;
18166;SDS011;9208;42.688;23.404;2022-11-14T00:07:12;30.27;;;21.83;;
18166;SDS011;9208;42.688;23.404;2022-11-14T00:09:37;31.73;;;21.33;;
18166;SDS011;9208;42.688;23.404;2022-11-14T00:12:04;32.23;;;23.00;;
18166;SDS011;9208;42.688;23.404;2022-11-14T00:14:30;34.33;;;22.73;;
18166;SDS011;9208;42.688;23.404;2022-11-14T00:16:55;36.23;;;23.37;;
18166;SDS011;9208;42.688;23.404;2022-11-14T00:19:21;35.97;;;23.60;;
18166;SDS011;9208;42.688;23.404;2022-11-14T00:21:46;30.13;;;22.70;;
18166;SDS011;9208;42.688;23.404;2022-11-14T00:24:12;28.67;;;21.73;;
18166;SDS011;9208;42.688;23.404;2022-11-14T00:26:37;30.73;;;22.40;;
18166;SDS011;9208;42.688;23.404;2022-11-14T00:29:02;31.53;;;22.07;;
18166;SDS011;9208;42.688;23.404;2022-11-14T00:31:28;34.43;;;23.20;;
18166;SDS011;9208;42.688;23.404;2022-11-14T00:33:53;32.00;;;23.03;;
18166;SDS011;9208;42.688;23.404;2022-11-14T00:36:19;29.57;;;19.87;;
18166;SDS011;9208;42.688;23.404;2022-11-14T00:38:44;27.87;;;20.50;;
18166;SDS011;9208;42.688;23.404;2022-11-14T00:41:10;29.67;;;21.13;;
18166;SDS011;9208;42.688;23.404;2022-11-14T00:43:35;30.40;;;21.60;;
18166;SDS011;9208;42.688;23.404;2022-11-14T00:46:00;29.37;;;20.77;;
18166;SDS011;9208;42.688;23.404;2022-11-14T00:48:26;27.10;;;19.40;;
18166;SDS011;9208;42.688;23.404;2022-11-14T00:50:51;28.37;;;19.67;;
18166;SDS011;9208;42.688;23.404;2022-11-14T00:53:17;25.17;;;17.67;;
18166;SDS011;9208;42.688;23.404;2022-11-14T00:55:42;24.73;;;18.13;;
18166;SDS011;9208;42.688;23.404;2022-11-14T00:58:08;25.60;;;18.43;;
18166;SDS011;9208;42.688;23.404;2022-11-14T01:00:33;24.70;;;18.57;;
18166;SDS011;9208;42.688;23.404;2022-11-14T01:02:59;25.53;;;18.93;;
18166;SDS011;9208;42.688;23.404;2022-11-14T01:05:25;23.87;;;17.50;;
18166;SDS011;9208;42.688;23.404;2022-11-14T01:07:51;23.33;;;18.20;;
18166;SDS011;9208;42.688;23.404;2022-11-14T01:10:16;25.90;;;19.60;;
18166;SDS011;9208;42.688;23.404;2022-11-14T01:12:42;27.20;;;20.57;;
18166;SDS011;9208;42.688;23.404;2022-11-14T01:15:08;27.67;;;20.40;;
18166;SDS011;9208;42.688;23.404;2022-11-14T01:17:33;26.73;;;19.40;;
18166;SDS011;9208;42.688;23.404;2022-11-14T01:19:59;23.83;;;18.50;;
18166;SDS011;9208;42.688;23.404;2022-11-14T01:22:24;26.67;;;19.60;;
18166;SDS011;9208;42.688;23.404;2022-11-14T01:24:50;26.37;;;20.00;;
18166;SDS011;9208;42.688;23.404;2022-11-14T01:27:15;27.73;;;20.60;;
18166;SDS011;9208;42.688;23.404;2022-11-14T01:29:41;32.50;;;22.70;;
18166;SDS011;9208;42.688;23.404;2022-11-14T01:32:06;31.53;;;21.70;;
18166;SDS011;9208;42.688;23.404;2022-11-14T01:34:32;28.73;;;20.73;;
18166;SDS011;9208;42.688;23.404;2022-11-14T01:36:57;27.67;;;20.60;;
18166;SDS011;9208;42.688;23.404;2022-11-14T01:39:24;23.63;;;17.80;;
18166;SDS011;9208;42.688;23.404;2022-11-14T01:41:50;21.87;;;16.97;;
18166;SDS011;9208;42.688;23.404;2022-11-14T01:44:16;22.90;;;17.37;;
18166;SDS011;9208;42.688;23.404;2022-11-14T01:47:02;21.33;;;16.90;;
18166;SDS011;9208;42.688;23.404;2022-11-14T01:49:31;20.80;;;16.27;;
18166;SDS011;9208;42.688;23.404;2022-11-14T01:52:02;19.60;;;15.30;;
18166;SDS011;9208;42.688;23.404;2022-11-14T01:54:32;21.67;;;16.83;;
18166;SDS011;9208;42.688;23.404;2022-11-14T01:57:01;20.13;;;15.80;;
18166;SDS011;9208;42.688;23.404;2022-11-14T01:59:39;20.93;;;16.33;;
18166;SDS011;9208;42.688;23.404;2022-11-14T02:02:15;20.83;;;16.27;;
18166;SDS011;9208;42.688;23.404;2022-11-14T02:04:43;26.47;;;18.87;;
18166;SDS011;9208;42.688;23.404;2022-11-14T02:07:11;27.57;;;19.60;;
18166;SDS011;9208;42.688;23.404;2022-11-14T02:09:40;26.87;;;19.73;;
18166;SDS011;9208;42.688;23.404;2022-11-14T02:12:08;26.43;;;19.10;;
18166;SDS011;9208;42.688;23.404;2022-11-14T02:14:38;32.37;;;20.30;;
18166;SDS011;9208;42.688;23.404;2022-11-14T02:17:05;29.27;;;20.60;;
18166;SDS011;9208;42.688;23.404;2022-11-14T02:19:44;36.40;;;21.47;;
18166;SDS011;9208;42.688;23.404;2022-11-14T02:22:15;28.03;;;19.27;;
18166;SDS011;9208;42.688;23.404;2022-11-14T02:24:40;33.93;;;20.40;;
18166;SDS011;9208;42.688;23.404;2022-11-14T02:27:06;30.20;;;21.30;;
18166;SDS011;9208;42.688;23.404;2022-11-14T02:29:34;32.23;;;21.23;;
18166;SDS011;9208;42.688;23.404;2022-11-14T02:32:00;35.67;;;21.20;;
18166;SDS011;9208;42.688;23.404;2022-11-14T02:34:26;32.33;;;20.47;;
18166;SDS011;9208;42.688;23.404;2022-11-14T02:36:51;32.23;;;21.80;;
18166;SDS011;9208;42.688;23.404;2022-11-14T02:39:17;33.73;;;22.17;;
18166;SDS011;9208;42.688;23.404;2022-11-14T02:41:42;34.43;;;21.83;;
18166;SDS011;9208;42.688;23.404;2022-11-14T02:44:07;34.13;;;22.13;;
18166;SDS011;9208;42.688;23.404;2022-11-14T02:46:33;31.63;;;22.30;;
18166;SDS011;9208;42.688;23.404;2022-11-14T02:48:59;36.43;;;22.20;;
18166;SDS011;9208;42.688;23.404;2022-11-14T02:51:24;36.07;;;22.27;;
18166;SDS011;9208;42.688;23.404;2022-11-14T02:53:50;33.13;;;21.83;;
18166;SDS011;9208;42.688;23.404;2022-11-14T02:56:15;26.60;;;18.63;;
18166;SDS011;9208;42.688;23.404;2022-11-14T02:58:41;23.73;;;16.47;;
18166;SDS011;9208;42.688;23.404;2022-11-14T03:01:06;22.57;;;16.47;;
18166;SDS011;9208;42.688;23.404;2022-11-14T03:03:32;26.57;;;16.93;;
18166;SDS011;9208;42.688;23.404;2022-11-14T03:06:00;20.47;;;14.87;;
18166;SDS011;9208;42.688;23.404;2022-11-14T03:08:27;20.33;;;15.50;;
18166;SDS011;9208;42.688;23.404;2022-11-14T03:10:52;22.67;;;15.57;;
18166;SDS011;9208;42.688;23.404;2022-11-14T03:13:18;23.27;;;16.60;;
18166;SDS011;9208;42.688;23.404;2022-11-14T03:15:44;20.77;;;15.33;;
18166;SDS011;9208;42.688;23.404;2022-11-14T03:18:10;21.73;;;15.37;;
18166;SDS011;9208;42.688;23.404;2022-11-14T03:20:36;20.53;;;15.43;;
18166;SDS011;9208;42.688;23.404;2022-11-14T03:23:02;19.93;;;15.13;;
18166;SDS011;9208;42.688;23.404;2022-11-14T03:25:27;20.97;;;15.57;;
18166;SDS011;9208;42.688;23.404;2022-11-14T03:27:53;27.30;;;16.17;;
18166;SDS011;9208;42.688;23.404;2022-11-14T03:30:19;21.67;;;15.47;;
18166;SDS011;9208;42.688;23.404;2022-11-14T03:32:44;19.63;;;15.33;;
18166;SDS011;9208;42.688;23.404;2022-11-14T03:35:10;21.97;;;16.03;;
18166;SDS011;9208;42.688;23.404;2022-11-14T03:37:35;19.07;;;14.80;;
18166;SDS011;9208;42.688;23.404;2022-11-14T03:40:01;18.17;;;14.37;;
18166;SDS011;9208;42.688;23.404;2022-11-14T03:42:27;20.33;;;15.63;;
18166;SDS011;9208;42.688;23.404;2022-11-14T03:44:52;29.43;;;14.90;;
18166;SDS011;9208;42.688;23.404;2022-11-14T03:47:18;18.93;;;13.77;;
18166;SDS011;9208;42.688;23.404;2022-11-14T03:49:43;19.10;;;14.97;;
18166;SDS011;9208;42.688;23.404;2022-11-14T03:52:09;18.33;;;13.07;;
18166;SDS011;9208;42.688;23.404;2022-11-14T03:54:36;16.50;;;12.93;;
18166;SDS011;9208;42.688;23.404;2022-11-14T03:57:02;17.77;;;13.33;;
18166;SDS011;9208;42.688;23.404;2022-11-14T03:59:33;19.57;;;13.73;;
18166;SDS011;9208;42.688;23.404;2022-11-14T04:01:58;18.20;;;13.63;;
18166;SDS011;9208;42.688;23.404;2022-11-14T04:04:27;16.63;;;12.97;;
18166;SDS011;9208;42.688;23.404;2022-11-14T04:06:53;14.17;;;11.93;;
18166;SDS011;9208;42.688;23.404;2022-11-14T04:09:22;15.07;;;12.30;;
18166;SDS011;9208;42.688;23.404;2022-11-14T04:11:47;14.00;;;11.40;;
18166;SDS011;9208;42.688;23.404;2022-11-14T04:14:16;15.33;;;11.17;;
18166;SDS011;9208;42.688;23.404;2022-11-14T04:16:41;12.93;;;10.87;;
18166;SDS011;9208;42.688;23.404;2022-11-14T04:19:07;15.40;;;11.23;;
18166;SDS011;9208;42.688;23.404;2022-11-14T04:21:32;13.67;;;11.17;;
18166;SDS011;9208;42.688;23.404;2022-11-14T04:23:58;15.80;;;12.17;;
18166;SDS011;9208;42.688;23.404;2022-11-14T04:26:23;13.10;;;11.33;;
18166;SDS011;9208;42.688;23.404;2022-11-14T04:28:49;15.57;;;12.27;;
18166;SDS011;9208;42.688;23.404;2022-11-14T04:31:14;16.23;;;11.73;;
18166;SDS011;9208;42.688;23.404;2022-11-14T04:33:39;17.43;;;12.33;;
18166;SDS011;9208;42.688;23.404;2022-11-14T04:36:05;17.67;;;12.27;;
18166;SDS011;9208;42.688;23.404;2022-11-14T04:38:31;18.47;;;12.57;;
18166;SDS011;9208;42.688;23.404;2022-11-14T04:40:56;17.77;;;13.17;;
18166;SDS011;9208;42.688;23.404;2022-11-14T04:43:21;17.73;;;13.77;;
18166;SDS011;9208;42.688;23.404;2022-11-14T04:45:47;20.43;;;13.47;;
18166;SDS011;9208;42.688;23.404;2022-11-14T04:48:12;20.23;;;13.47;;
18166;SDS011;9208;42.688;23.404;2022-11-14T04:50:41;18.40;;;13.33;;
18166;SDS011;9208;42.688;23.404;2022-11-14T04:53:06;19.37;;;13.33;;
18166;SDS011;9208;42.688;23.404;2022-11-14T04:55:32;17.90;;;13.53;;
18166;SDS011;9208;42.688;23.404;2022-11-14T04:57:57;21.30;;;14.83;;
18166;SDS011;9208;42.688;23.404;2022-11-14T05:00:23;19.30;;;13.83;;
18166;SDS011;9208;42.688;23.404;2022-11-14T05:02:49;20.03;;;13.93;;
18166;SDS011;9208;42.688;23.404;2022-11-14T05:05:15;20.20;;;14.07;;
18166;SDS011;9208;42.688;23.404;2022-11-14T05:07:40;19.27;;;13.63;;
18166;SDS011;9208;42.688;23.404;2022-11-14T05:10:06;21.80;;;14.97;;
18166;SDS011;9208;42.688;23.404;2022-11-14T05:12:32;23.03;;;14.90;;
18166;SDS011;9208;42.688;23.404;2022-11-14T05:14:58;25.80;;;14.97;;
18166;SDS011;9208;42.688;23.404;2022-11-14T05:17:23;21.23;;;14.90;;
18166;SDS011;9208;42.688;23.404;2022-11-14T05:19:49;20.20;;;13.23;;
18166;SDS011;9208;42.688;23.404;2022-11-14T05:22:14;21.63;;;14.13;;
18166;SDS011;9208;42.688;23.404;2022-11-14T05:24:40;29.67;;;14.43;;
18166;SDS011;9208;42.688;23.404;2022-11-14T05:27:05;23.33;;;14.10;;
18166;SDS011;9208;42.688;23.404;2022-11-14T05:29:31;18.80;;;13.20;;
18166;SDS011;9208;42.688;23.404;2022-11-14T05:31:56;20.73;;;13.20;;
18166;SDS011;9208;42.688;23.404;2022-11-14T05:34:22;18.73;;;12.97;;
18166;SDS011;9208;42.688;23.404;2022-11-14T05:36:48;19.07;;;13.57;;
18166;SDS011;9208;42.688;23.404;2022-11-14T05:39:14;17.93;;;12.87;;
18166;SDS011;9208;42.688;23.404;2022-11-14T05:41:39;17.97;;;12.63;;
18166;SDS011;9208;42.688;23.404;2022-11-14T05:44:05;17.10;;;12.53;;
18166;SDS011;9208;42.688;23.404;2022-11-14T05:46:31;16.17;;;12.53;;
18166;SDS011;9208;42.688;23.404;2022-11-14T05:48:56;18.67;;;13.43;;
18166;SDS011;9208;42.688;23.404;2022-11-14T05:51:22;16.80;;;12.87;;
18166;SDS011;9208;42.688;23.404;2022-11-14T05:53:47;18.13;;;13.40;;
18166;SDS011;9208;42.688;23.404;2022-11-14T05:56:13;15.87;;;12.00;;
18166;SDS011;9208;42.688;23.404;2022-11-14T05:58:38;17.63;;;12.83;;
18166;SDS011;9208;42.688;23.404;2022-11-14T06:01:14;17.87;;;13.07;;
18166;SDS011;9208;42.688;23.404;2022-11-14T06:03:43;16.80;;;12.93;;
18166;SDS011;9208;42.688;23.404;2022-11-14T06:06:11;22.30;;;13.53;;
18166;SDS011;9208;42.688;23.404;2022-11-14T06:08:42;18.67;;;13.37;;
18166;SDS011;9208;42.688;23.404;2022-11-14T06:11:09;19.73;;;13.07;;
18166;SDS011;9208;42.688;23.404;2022-11-14T06:13:36;21.50;;;14.57;;
18166;SDS011;9208;42.688;23.404;2022-11-14T06:16:02;20.37;;;13.63;;
18166;SDS011;9208;42.688;23.404;2022-11-14T06:18:30;20.23;;;14.97;;
18166;SDS011;9208;42.688;23.404;2022-11-14T06:21:06;18.70;;;13.30;;
18166;SDS011;9208;42.688;23.404;2022-11-14T06:23:37;16.77;;;13.57;;
18166;SDS011;9208;42.688;23.404;2022-11-14T06:26:06;19.93;;;13.40;;
18166;SDS011;9208;42.688;23.404;2022-11-14T06:28:36;21.10;;;14.30;;
18166;SDS011;9208;42.688;23.404;2022-11-14T06:31:03;18.03;;;13.30;;
18166;SDS011;9208;42.688;23.404;2022-11-14T06:33:32;17.80;;;14.07;;
18166;SDS011;9208;42.688;23.404;2022-11-14T06:35:59;19.83;;;14.00;;
18166;SDS011;9208;42.688;23.404;2022-11-14T06:38:26;19.53;;;13.40;;
18166;SDS011;9208;42.688;23.404;2022-11-14T06:40:52;18.47;;;12.93;;
18166;SDS011;9208;42.688;23.404;2022-11-14T06:43:32;19.83;;;14.23;;
18166;SDS011;9208;42.688;23.404;2022-11-14T06:46:03;19.00;;;13.90;;
18166;SDS011;9208;42.688;23.404;2022-11-14T06:48:30;18.67;;;14.63;;
18166;SDS011;9208;42.688;23.404;2022-11-14T06:50:56;18.00;;;13.93;;
18166;SDS011;9208;42.688;23.404;2022-11-14T06:53:23;21.73;;;13.63;;
18166;SDS011;9208;42.688;23.404;2022-11-14T06:55:56;19.87;;;14.20;;
18166;SDS011;9208;42.688;23.404;2022-11-14T06:58:27;18.83;;;13.90;;
18166;SDS011;9208;42.688;23.404;2022-11-14T07:00:53;22.93;;;14.90;;
18166;SDS011;9208;42.688;23.404;2022-11-14T07:03:19;20.67;;;13.60;;
18166;SDS011;9208;42.688;23.404;2022-11-14T07:05:45;17.73;;;14.37;;
18166;SDS011;9208;42.688;23.404;2022-11-14T07:08:10;21.33;;;15.10;;
18166;SDS011;9208;42.688;23.404;2022-11-14T07:10:36;19.60;;;13.97;;
18166;SDS011;9208;42.688;23.404;2022-11-14T07:13:01;20.20;;;14.93;;
18166;SDS011;9208;42.688;23.404;2022-11-14T07:15:26;21.10;;;15.77;;
18166;SDS011;9208;42.688;23.404;2022-11-14T07:17:52;22.33;;;14.83;;
18166;SDS011;9208;42.688;23.404;2022-11-14T07:20:17;23.43;;;15.23;;
18166;SDS011;9208;42.688;23.404;2022-11-14T07:22:46;21.63;;;15.23;;
18166;SDS011;9208;42.688;23.404;2022-11-14T07:25:12;22.80;;;15.70;;
18166;SDS011;9208;42.688;23.404;2022-11-14T07:27:38;19.83;;;14.97;;
18166;SDS011;9208;42.688;23.404;2022-11-14T07:30:03;27.10;;;15.80;;
18166;SDS011;9208;42.688;23.404;2022-11-14T07:32:29;24.23;;;15.73;;
18166;SDS011;9208;42.688;23.404;2022-11-14T07:34:55;24.23;;;17.07;;
18166;SDS011;9208;42.688;23.404;2022-11-14T07:37:21;24.47;;;16.97;;
18166;SDS011;9208;42.688;23.404;2022-11-14T07:39:46;21.37;;;15.80;;
18166;SDS011;9208;42.688;23.404;2022-11-14T07:42:12;23.20;;;17.13;;
18166;SDS011;9208;42.688;23.404;2022-11-14T07:44:37;24.03;;;17.13;;
18166;SDS011;9208;42.688;23.404;2022-11-14T07:47:03;22.97;;;17.47;;
18166;SDS011;9208;42.688;23.404;2022-11-14T07:49:28;24.63;;;18.37;;
18166;SDS011;9208;42.688;23.404;2022-11-14T07:51:54;29.00;;;20.23;;
18166;SDS011;9208;42.688;23.404;2022-11-14T07:54:19;30.57;;;20.60;;
18166;SDS011;9208;42.688;23.404;2022-11-14T07:56:44;28.13;;;19.87;;
18166;SDS011;9208;42.688;23.404;2022-11-14T07:59:10;28.57;;;20.30;;
18166;SDS011;9208;42.688;23.404;2022-11-14T08:01:35;30.10;;;19.97;;
18166;SDS011;9208;42.688;23.404;2022-11-14T08:04:01;29.30;;;18.97;;
18166;SDS011;9208;42.688;23.404;2022-11-14T08:06:26;27.27;;;19.43;;
18166;SDS011;9208;42.688;23.404;2022-11-14T08:08:52;27.40;;;19.50;;
18166;SDS011;9208;42.688;23.404;2022-11-14T08:11:18;29.93;;;20.17;;
18166;SDS011;9208;42.688;23.404;2022-11-14T08:14:03;28.00;;;19.27;;
18166;SDS011;9208;42.688;23.404;2022-11-14T08:16:29;27.33;;;18.80;;
18166;SDS011;9208;42.688;23.404;2022-11-14T08:18:54;27.73;;;18.63;;
18166;SDS011;9208;42.688;23.404;2022-11-14T08:21:19;26.50;;;19.57;;
18166;SDS011;9208;42.688;23.404;2022-11-14T08:23:45;31.43;;;20.00;;
18166;SDS011;9208;42.688;23.404;2022-11-14T08:26:10;27.70;;;19.83;;
18166;SDS011;9208;42.688;23.404;2022-11-14T08:28:36;29.60;;;20.37;;
18166;SDS011;9208;42.688;23.404;2022-11-14T08:31:02;28.47;;;21.00;;
18166;SDS011;9208;42.688;23.404;2022-11-14T08:33:28;29.17;;;20.33;;
18166;SDS011;9208;42.688;23.404;2022-11-14T08:35:55;28.13;;;19.53;;
18166;SDS011;9208;42.688;23.404;2022-11-14T08:38:23;30.07;;;19.53;;
18166;SDS011;9208;42.688;23.404;2022-11-14T08:40:49;31.00;;;21.00;;
18166;SDS011;9208;42.688;23.404;2022-11-14T08:43:14;30.43;;;21.20;;
18166;SDS011;9208;42.688;23.404;2022-11-14T08:45:40;30.47;;;21.00;;
18166;SDS011;9208;42.688;23.404;2022-11-14T08:48:05;30.43;;;21.17;;
18166;SDS011;9208;42.688;23.404;2022-11-14T08:50:31;30.47;;;20.47;;
18166;SDS011;9208;42.688;23.404;2022-11-14T08:52:57;31.77;;;20.53;;
18166;SDS011;9208;42.688;23.404;2022-11-14T08:55:22;29.73;;;20.57;;
18166;SDS011;9208;42.688;23.404;2022-11-14T08:57:51;31.17;;;21.20;;
18166;SDS011;9208;42.688;23.404;2022-11-14T09:00:18;29.83;;;20.60;;
18166;SDS011;9208;42.688;23.404;2022-11-14T09:02:43;31.33;;;21.47;;
18166;SDS011;9208;42.688;23.404;2022-11-14T09:05:10;29.43;;;20.03;;
18166;SDS011;9208;42.688;23.404;2022-11-14T09:07:35;27.23;;;19.97;;
18166;SDS011;9208;42.688;23.404;2022-11-14T09:10:01;32.67;;;20.70;;
18166;SDS011;9208;42.688;23.404;2022-11-14T09:12:27;36.97;;;21.70;;
18166;SDS011;9208;42.688;23.404;2022-11-14T09:14:52;32.70;;;20.67;;
18166;SDS011;9208;42.688;23.404;2022-11-14T09:17:18;29.40;;;20.17;;
18166;SDS011;9208;42.688;23.404;2022-11-14T09:19:43;35.33;;;22.77;;
18166;SDS011;9208;42.688;23.404;2022-11-14T09:22:09;31.07;;;21.23;;
18166;SDS011;9208;42.688;23.404;2022-11-14T09:24:37;33.07;;;23.20;;
18166;SDS011;9208;42.688;23.404;2022-11-14T09:27:02;28.70;;;21.13;;
18166;SDS011;9208;42.688;23.404;2022-11-14T09:29:28;26.77;;;20.07;;
18166;SDS011;9208;42.688;23.404;2022-11-14T09:31:53;33.47;;;20.80;;
18166;SDS011;9208;42.688;23.404;2022-11-14T09:34:19;30.13;;;19.80;;
18166;SDS011;9208;42.688;23.404;2022-11-14T09:36:45;31.07;;;19.83;;
18166;SDS011;9208;42.688;23.404;2022-11-14T09:39:11;26.27;;;18.90;;
18166;SDS011;9208;42.688;23.404;2022-11-14T09:47:17;27.30;;;18.40;;
18166;SDS011;9208;42.688;23.404;2022-11-14T09:49:47;24.73;;;17.10;;
18166;SDS011;9208;42.688;23.404;2022-11-14T09:55:11;22.10;;;16.70;;
18166;SDS011;9208;42.688;23.404;2022-11-14T09:57:48;22.93;;;16.97;;
18166;SDS011;9208;42.688;23.404;2022-11-14T10:00:17;26.10;;;18.67;;
18166;SDS011;9208;42.688;23.404;2022-11-14T10:05:35;25.67;;;18.90;;
18166;SDS011;9208;42.688;23.404;2022-11-14T10:11:03;25.20;;;17.40;;
18166;SDS011;9208;42.688;23.404;2022-11-14T10:29:28;27.67;;;19.67;;
18166;SDS011;9208;42.688;23.404;2022-11-14T10:48:55;31.13;;;22.30;;
18166;SDS011;9208;42.688;23.404;2022-11-14T10:51:40;30.43;;;22.30;;
18166;SDS011;9208;42.688;23.404;2022-11-14T10:54:12;27.77;;;21.23;;
18166;SDS011;9208;42.688;23.404;2022-11-14T10:56:46;28.17;;;21.63;;
18166;SDS011;9208;42.688;23.404;2022-11-14T10:59:16;28.27;;;21.77;;
18166;SDS011;9208;42.688;23.404;2022-11-14T11:07:42;31.50;;;22.93;;
18166;SDS011;9208;42.688;23.404;2022-11-14T11:10:02;30.50;;;23.03;;
18166;SDS011;9208;42.688;23.404;2022-11-14T11:12:53;31.87;;;21.53;;
18166;SDS011;9208;42.688;23.404;2022-11-14T11:15:27;31.10;;;22.57;;
18166;SDS011;9208;42.688;23.404;2022-11-14T11:17:56;29.90;;;21.87;;
18166;SDS011;9208;42.688;23.404;2022-11-14T11:20:24;26.73;;;21.33;;
18166;SDS011;9208;42.688;23.404;2022-11-14T11:23:34;29.03;;;20.73;;
18166;SDS011;9208;42.688;23.404;2022-11-14T11:25:44;33.67;;;21.83;;
18166;SDS011;9208;42.688;23.404;2022-11-14T11:31:02;27.37;;;21.20;;
18166;SDS011;9208;42.688;23.404;2022-11-14T11:33:29;28.40;;;21.37;;
18166;SDS011;9208;42.688;23.404;2022-11-14T11:35:58;36.87;;;21.27;;
18166;SDS011;9208;42.688;23.404;2022-11-14T11:38:35;28.53;;;21.90;;
18166;SDS011;9208;42.688;23.404;2022-11-14T11:41:05;27.43;;;20.20;;
18166;SDS011;9208;42.688;23.404;2022-11-14T11:43:44;29.50;;;20.67;;
18166;SDS011;9208;42.688;23.404;2022-11-14T11:46:17;28.30;;;21.30;;
18166;SDS011;9208;42.688;23.404;2022-11-14T11:48:50;26.63;;;21.37;;
18166;SDS011;9208;42.688;23.404;2022-11-14T11:51:21;29.97;;;21.77;;
18166;SDS011;9208;42.688;23.404;2022-11-14T11:54:02;30.92;;;25.23;;
18166;SDS011;9208;42.688;23.404;2022-11-14T11:56:37;31.20;;;23.07;;
18166;SDS011;9208;42.688;23.404;2022-11-14T12:01:43;30.20;;;23.10;;
18166;SDS011;9208;42.688;23.404;2022-11-14T12:04:08;32.93;;;22.97;;
18166;SDS011;9208;42.688;23.404;2022-11-14T12:06:37;33.00;;;23.27;;
18166;SDS011;9208;42.688;23.404;2022-11-14T12:09:18;30.83;;;22.27;;
18166;SDS011;9208;42.688;23.404;2022-11-14T12:11:50;34.33;;;24.23;;
18166;SDS011;9208;42.688;23.404;2022-11-14T12:17:37;38.77;;;26.43;;
18166;SDS011;9208;42.688;23.404;2022-11-14T12:20:18;47.33;;;27.20;;
18166;SDS011;9208;42.688;23.404;2022-11-14T12:30:52;34.00;;;25.73;;
18166;SDS011;9208;42.688;23.404;2022-11-14T12:33:30;35.60;;;25.70;;
18166;SDS011;9208;42.688;23.404;2022-11-14T12:35:59;35.67;;;26.50;;
18166;SDS011;9208;42.688;23.404;2022-11-14T12:38:31;35.90;;;25.93;;
18166;SDS011;9208;42.688;23.404;2022-11-14T12:41:25;37.20;;;27.60;;
18166;SDS011;9208;42.688;23.404;2022-11-14T12:47:37;42.50;;;27.83;;
18166;SDS011;9208;42.688;23.404;2022-11-14T12:55:18;40.90;;;26.67;;
18166;SDS011;9208;42.688;23.404;2022-11-14T13:00:37;44.03;;;28.37;;
18166;SDS011;9208;42.688;23.404;2022-11-14T13:06:16;44.23;;;27.50;;
18166;SDS011;9208;42.688;23.404;2022-11-14T13:11:41;38.13;;;27.30;;
18166;SDS011;9208;42.688;23.404;2022-11-14T13:14:28;42.13;;;29.07;;
18166;SDS011;9208;42.688;23.404;2022-11-14T13:17:30;43.87;;;29.43;;
18166;SDS011;9208;42.688;23.404;2022-11-14T13:20:25;39.10;;;27.80;;
18166;SDS011;9208;42.688;23.404;2022-11-14T13:33:49;43.90;;;30.13;;
18166;SDS011;9208;42.688;23.404;2022-11-14T13:36:21;52.10;;;31.60;;
18166;SDS011;9208;42.688;23.404;2022-11-14T13:50:18;42.27;;;30.60;;
18166;SDS011;9208;42.688;23.404;2022-11-14T13:52:50;45.67;;;30.73;;
18166;SDS011;9208;42.688;23.404;2022-11-14T13:55:20;49.00;;;32.03;;
18166;SDS011;9208;42.688;23.404;2022-11-14T14:00:52;45.30;;;29.33;;
18166;SDS011;9208;42.688;23.404;2022-11-14T14:17:01;46.53;;;31.00;;
18166;SDS011;9208;42.688;23.404;2022-11-14T14:20:09;45.40;;;32.53;;
18166;SDS011;9208;42.688;23.404;2022-11-14T14:25:52;42.20;;;30.63;;
18166;SDS011;9208;42.688;23.404;2022-11-14T14:28:21;43.20;;;31.53;;
18166;SDS011;9208;42.688;23.404;2022-11-14T14:33:50;50.03;;;33.00;;
18166;SDS011;9208;42.688;23.404;2022-11-14T14:38:49;44.57;;;31.30;;
18166;SDS011;9208;42.688;23.404;2022-11-14T14:41:17;48.13;;;31.77;;
18166;SDS011;9208;42.688;23.404;2022-11-14T14:43:48;42.40;;;31.97;;
18166;SDS011;9208;42.688;23.404;2022-11-14T14:46:30;44.53;;;30.63;;
18166;SDS011;9208;42.688;23.404;2022-11-14T14:48:58;41.77;;;30.07;;
18166;SDS011;9208;42.688;23.404;2022-11-14T14:51:31;42.03;;;29.70;;
18166;SDS011;9208;42.688;23.404;2022-11-14T14:53:59;44.10;;;30.37;;
18166;SDS011;9208;42.688;23.404;2022-11-14T14:56:25;43.43;;;30.00;;
18166;SDS011;9208;42.688;23.404;2022-11-14T14:58:52;41.13;;;28.23;;
18166;SDS011;9208;42.688;23.404;2022-11-14T15:01:32;40.83;;;29.10;;
18166;SDS011;9208;42.688;23.404;2022-11-14T15:04:08;38.97;;;27.70;;
18166;SDS011;9208;42.688;23.404;2022-11-14T15:06:39;46.00;;;28.60;;
18166;SDS011;9208;42.688;23.404;2022-11-14T15:11:51;60.73;;;30.97;;
18166;SDS011;9208;42.688;23.404;2022-11-14T15:14:40;41.07;;;28.37;;
18166;SDS011;9208;42.688;23.404;2022-11-14T15:17:05;45.77;;;29.73;;
18166;SDS011;9208;42.688;23.404;2022-11-14T15:19:33;47.87;;;29.90;;
18166;SDS011;9208;42.688;23.404;2022-11-14T15:22:17;56.57;;;31.07;;
18166;SDS011;9208;42.688;23.404;2022-11-14T15:25:13;54.60;;;30.57;;
18166;SDS011;9208;42.688;23.404;2022-11-14T15:27:46;53.87;;;31.53;;
18166;SDS011;9208;42.688;23.404;2022-11-14T15:30:20;50.50;;;30.13;;
18166;SDS011;9208;42.688;23.404;2022-11-14T15:32:51;46.23;;;31.33;;
18166;SDS011;9208;42.688;23.404;2022-11-14T15:38:03;49.93;;;31.87;;
18166;SDS011;9208;42.688;23.404;2022-11-14T15:40:33;48.97;;;32.30;;
18166;SDS011;9208;42.688;23.404;2022-11-14T15:42:59;51.77;;;31.60;;
18166;SDS011;9208;42.688;23.404;2022-11-14T15:45:45;46.70;;;30.97;;
18166;SDS011;9208;42.688;23.404;2022-11-14T15:48:14;48.30;;;31.90;;
18166;SDS011;9208;42.688;23.404;2022-11-14T15:50:42;47.57;;;30.27;;
18166;SDS011;9208;42.688;23.404;2022-11-14T15:53:20;49.10;;;30.60;;
18166;SDS011;9208;42.688;23.404;2022-11-14T15:55:54;44.97;;;29.90;;
18166;SDS011;9208;42.688;23.404;2022-11-14T15:58:19;48.10;;;29.13;;
18166;SDS011;9208;42.688;23.404;2022-11-14T16:00:48;53.33;;;31.87;;
18166;SDS011;9208;42.688;23.404;2022-11-14T16:03:17;48.10;;;29.80;;
18166;SDS011;9208;42.688;23.404;2022-11-14T16:05:44;48.03;;;30.30;;
18166;SDS011;9208;42.688;23.404;2022-11-14T16:08:10;49.63;;;29.77;;
18166;SDS011;9208;42.688;23.404;2022-11-14T16:10:36;46.40;;;30.47;;
18166;SDS011;9208;42.688;23.404;2022-11-14T16:13:02;42.50;;;29.00;;
18166;SDS011;9208;42.688;23.404;2022-11-14T16:15:27;44.13;;;30.13;;
18166;SDS011;9208;42.688;23.404;2022-11-14T16:17:53;50.43;;;31.33;;
18166;SDS011;9208;42.688;23.404;2022-11-14T16:20:20;44.60;;;30.27;;
18166;SDS011;9208;42.688;23.404;2022-11-14T16:22:50;43.67;;;31.60;;
18166;SDS011;9208;42.688;23.404;2022-11-14T16:25:22;44.20;;;30.10;;
18166;SDS011;9208;42.688;23.404;2022-11-14T16:27:52;43.83;;;29.40;;
18166;SDS011;9208;42.688;23.404;2022-11-14T16:30:19;44.13;;;30.27;;
18166;SDS011;9208;42.688;23.404;2022-11-14T16:32:46;47.17;;;30.57;;
18166;SDS011;9208;42.688;23.404;2022-11-14T16:35:16;45.50;;;29.73;;
18166;SDS011;9208;42.688;23.404;2022-11-14T16:37:44;46.33;;;31.87;;
18166;SDS011;9208;42.688;23.404;2022-11-14T16:40:14;55.70;;;33.87;;
18166;SDS011;9208;42.688;23.404;2022-11-14T16:42:40;56.63;;;34.47;;
18166;SDS011;9208;42.688;23.404;2022-11-14T16:45:05;60.03;;;36.67;;
18166;SDS011;9208;42.688;23.404;2022-11-14T16:47:31;59.73;;;37.43;;
18166;SDS011;9208;42.688;23.404;2022-11-14T16:49:57;59.73;;;36.50;;